createdAt,value
2018-06-11T00:00:21.346Z,16.58
2018-06-11T00:02:49.995Z,16.60
2018-06-11T00:05:18.705Z,16.58
2018-06-11T00:07:47.522Z,16.57
2018-06-11T00:10:16.244Z,16.53
2018-06-11T00:12:44.959Z,16.54
2018-06-11T00:15:13.605Z,16.49
2018-06-11T00:17:42.283Z,16.47
2018-06-11T00:20:11.005Z,16.42
2018-06-11T00:22:39.800Z,16.38
2018-06-11T00:25:09.166Z,16.34
2018-06-11T00:27:39.340Z,16.35
2018-06-11T00:30:08.072Z,16.31
2018-06-11T00:32:36.831Z,16.29
2018-06-11T00:35:05.761Z,16.30
2018-06-11T00:37:34.266Z,16.27
2018-06-11T00:40:03.276Z,16.28
2018-06-11T00:42:32.537Z,16.23
2018-06-11T00:45:01.494Z,16.13
2018-06-11T00:47:30.979Z,16.11
2018-06-11T00:49:59.896Z,16.12
2018-06-11T00:52:28.514Z,16.18
2018-06-11T00:54:57.871Z,16.20
2018-06-11T00:57:26.586Z,16.21
2018-06-11T00:59:56.125Z,16.21
2018-06-11T01:02:25.040Z,16.19
2018-06-11T01:04:54.380Z,16.13
2018-06-11T01:07:23.087Z,16.10
2018-06-11T01:09:52.176Z,16.12
2018-06-11T01:12:22.167Z,16.12
2018-06-11T01:14:53.801Z,16.09
2018-06-11T01:17:23.255Z,16.06
2018-06-11T01:19:53.047Z,16.04
2018-06-11T01:22:21.792Z,15.97
2018-06-11T01:24:50.488Z,15.90
2018-06-11T01:27:19.420Z,15.89
2018-06-11T01:29:48.890Z,15.86
2018-06-11T01:32:18.041Z,15.85
2018-06-11T01:34:49.091Z,15.86
2018-06-11T01:37:17.802Z,15.86
2018-06-11T01:39:46.611Z,15.80
2018-06-11T01:42:15.280Z,15.79
2018-06-11T01:44:44.148Z,15.77
2018-06-11T01:47:13.202Z,15.78
2018-06-11T01:49:42.720Z,15.77
2018-06-11T01:52:11.447Z,15.78
2018-06-11T01:54:41.014Z,15.76
2018-06-11T01:57:12.484Z,15.77
2018-06-11T01:59:41.453Z,15.75
2018-06-11T02:02:10.472Z,15.71
2018-06-11T02:04:39.072Z,15.68
2018-06-11T02:07:08.136Z,15.64
2018-06-11T02:09:36.924Z,15.62
2018-06-11T02:12:06.586Z,15.62
2018-06-11T02:14:35.396Z,15.60
2018-06-11T02:17:04.898Z,15.60
2018-06-11T02:19:33.788Z,15.61
2018-06-11T02:22:02.549Z,15.64
2018-06-11T02:24:31.236Z,15.64
2018-06-11T02:26:59.907Z,15.62
2018-06-11T02:29:28.884Z,15.59
2018-06-11T02:31:57.569Z,15.63
2018-06-11T02:34:26.292Z,15.66
2018-06-11T02:36:55.543Z,15.70
2018-06-11T02:39:24.366Z,15.76
2018-06-11T02:41:53.036Z,15.87
2018-06-11T02:44:21.876Z,15.92
2018-06-11T02:46:50.751Z,15.91
2018-06-11T02:49:19.637Z,15.91
2018-06-11T02:51:48.222Z,15.96
2018-06-11T02:54:17.308Z,16.00
2018-06-11T02:56:46.713Z,15.97
2018-06-11T02:59:15.597Z,16.02
2018-06-11T03:01:45.226Z,16.03
2018-06-11T03:04:13.977Z,16.04
2018-06-11T03:06:42.714Z,16.08
2018-06-11T03:09:13.618Z,16.12
2018-06-11T03:11:42.263Z,16.15
2018-06-11T03:14:10.951Z,16.24
2018-06-11T03:16:39.513Z,16.28
2018-06-11T03:19:08.357Z,16.31
2018-06-11T03:21:37.063Z,16.30
2018-06-11T03:24:06.142Z,16.31
2018-06-11T03:26:35.579Z,16.32
2018-06-11T03:29:04.597Z,16.35
2018-06-11T03:31:33.498Z,16.40
2018-06-11T03:34:07.188Z,16.41
2018-06-11T03:36:37.131Z,16.42
2018-06-11T03:39:08.387Z,16.41
2018-06-11T03:41:37.918Z,16.44
2018-06-11T03:44:06.747Z,16.44
2018-06-11T03:46:35.942Z,16.49
2018-06-11T03:49:04.892Z,16.45
2018-06-11T03:51:33.515Z,16.42
2018-06-11T03:54:02.342Z,16.42
2018-06-11T03:56:31.711Z,16.45
2018-06-11T03:59:00.491Z,16.47
2018-06-11T04:01:29.316Z,16.46
2018-06-11T04:03:58.194Z,16.52
2018-06-11T04:06:27.072Z,16.58
2018-06-11T04:08:56.333Z,16.66
2018-06-11T04:11:25.147Z,16.65
2018-06-11T04:13:54.123Z,16.69
2018-06-11T04:16:23.708Z,16.66
2018-06-11T04:18:52.958Z,16.73
2018-06-11T04:21:21.722Z,16.78
2018-06-11T04:23:50.438Z,16.82
2018-06-11T04:26:19.338Z,16.90
2018-06-11T04:28:48.265Z,16.96
2018-06-11T04:31:16.978Z,16.97
2018-06-11T04:33:45.978Z,17.01
2018-06-11T04:36:15.608Z,17.07
2018-06-11T04:38:44.586Z,17.18
2018-06-11T04:41:13.269Z,17.27
2018-06-11T04:43:42.224Z,17.34
2018-06-11T04:46:11.644Z,17.36
2018-06-11T04:48:40.276Z,17.41
2018-06-11T04:51:09.131Z,17.44
2018-06-11T04:53:37.963Z,17.49
2018-06-11T04:56:06.861Z,17.48
2018-06-11T04:58:35.529Z,17.52
2018-06-11T05:01:04.976Z,17.50
2018-06-11T05:03:33.796Z,17.56
2018-06-11T05:06:02.589Z,17.68
2018-06-11T05:08:31.471Z,17.73
2018-06-11T05:11:00.183Z,17.86
2018-06-11T05:13:28.896Z,17.98
2018-06-11T05:15:57.658Z,18.06
2018-06-11T05:18:26.379Z,18.14
2018-06-11T05:20:55.446Z,18.17
2018-06-11T05:23:24.336Z,18.23
2018-06-11T05:25:53.133Z,18.39
2018-06-11T05:28:22.023Z,18.51
2018-06-11T05:30:51.637Z,18.68
2018-06-11T05:33:20.758Z,18.85
2018-06-11T05:35:49.736Z,18.95
2018-06-11T05:38:18.544Z,19.06
2018-06-11T05:40:47.672Z,19.18
2018-06-11T05:43:16.612Z,19.25
2018-06-11T05:45:46.152Z,19.39
2018-06-11T05:48:15.147Z,19.52
2018-06-11T05:50:45.014Z,19.62
2018-06-11T05:53:14.613Z,19.74
2018-06-11T05:55:43.784Z,19.87
2018-06-11T05:58:12.914Z,19.89
2018-06-11T06:00:42.491Z,19.84
2018-06-11T06:03:11.434Z,19.73
2018-06-11T06:05:40.707Z,19.67
2018-06-11T06:08:09.566Z,19.56
2018-06-11T06:10:40.053Z,19.72
2018-06-11T06:13:09.503Z,19.85
2018-06-11T06:15:38.943Z,19.96
2018-06-11T06:18:07.819Z,20.11
2018-06-11T06:20:37.044Z,20.39
2018-06-11T06:23:06.270Z,20.67
2018-06-11T06:25:35.083Z,21.37
2018-06-11T06:28:03.808Z,22.52
2018-06-11T06:30:32.754Z,23.54
2018-06-11T06:33:02.248Z,24.35
2018-06-11T06:35:31.001Z,24.58
2018-06-11T06:38:00.663Z,25.48
2018-06-11T06:40:29.639Z,25.74
2018-06-11T06:42:58.197Z,26.32
2018-06-11T06:45:26.779Z,26.61
2018-06-11T06:47:55.520Z,26.43
2018-06-11T06:50:25.064Z,26.03
2018-06-11T06:52:53.929Z,26.19
2018-06-11T06:55:23.018Z,26.26
2018-06-11T06:57:52.395Z,27.06
2018-06-11T07:00:21.538Z,27.16
2018-06-11T07:02:51.039Z,26.70
2018-06-11T07:05:19.988Z,26.81
2018-06-11T07:07:48.660Z,26.41
2018-06-11T07:10:17.543Z,26.31
2018-06-11T07:12:46.419Z,26.09
2018-06-11T07:15:15.612Z,25.92
2018-06-11T07:17:45.113Z,25.51
2018-06-11T07:20:13.860Z,25.03
2018-06-11T07:22:42.679Z,24.64
2018-06-11T07:25:12.129Z,24.41
2018-06-11T07:27:41.097Z,24.20
2018-06-11T07:30:11.295Z,24.04
2018-06-11T07:32:40.465Z,23.87
2018-06-11T07:35:09.693Z,23.88
2018-06-11T07:37:38.568Z,23.89
2018-06-11T07:40:07.248Z,23.94
2018-06-11T07:42:36.015Z,24.02
2018-06-11T07:45:05.058Z,23.97
2018-06-11T07:47:33.861Z,23.99
2018-06-11T07:50:03.364Z,23.96
2018-06-11T07:52:32.239Z,24.07
2018-06-11T07:55:01.559Z,24.38
2018-06-11T07:57:30.939Z,24.32
2018-06-11T08:00:00.256Z,24.36
2018-06-11T08:02:29.050Z,24.63
2018-06-11T08:04:58.729Z,24.85
2018-06-11T08:07:27.404Z,25.15
2018-06-11T08:09:56.100Z,25.25
2018-06-11T08:12:25.023Z,25.72
2018-06-11T08:14:54.215Z,25.94
2018-06-11T08:17:23.730Z,26.08
2018-06-11T08:19:52.755Z,26.09
2018-06-11T08:22:21.970Z,26.16
2018-06-11T08:24:50.829Z,25.99
2018-06-11T08:27:19.540Z,26.11
2018-06-11T08:29:48.359Z,26.32
2018-06-11T08:32:17.283Z,26.20
2018-06-11T08:34:46.104Z,25.90
2018-06-11T08:37:15.234Z,25.55
2018-06-11T08:39:44.720Z,25.40
2018-06-11T08:42:13.917Z,25.31
2018-06-11T08:44:42.800Z,25.20
2018-06-11T08:47:11.653Z,25.10
2018-06-11T08:49:40.544Z,25.09
2018-06-11T08:52:09.685Z,25.02
2018-06-11T08:54:39.196Z,24.99
2018-06-11T08:57:07.847Z,24.77
2018-06-11T08:59:37.543Z,24.73
2018-06-11T09:02:06.453Z,24.68
2018-06-11T09:04:35.080Z,24.55
2018-06-11T09:07:04.187Z,24.54
2018-06-11T09:09:33.425Z,24.48
2018-06-11T09:12:02.903Z,24.59
2018-06-11T09:14:31.729Z,24.81
2018-06-11T09:17:01.228Z,25.00
2018-06-11T09:19:29.846Z,25.41
2018-06-11T09:21:58.693Z,25.68
2018-06-11T09:24:27.358Z,25.93
2018-06-11T09:26:56.050Z,26.14
2018-06-11T09:29:25.036Z,26.46
2018-06-11T09:31:54.444Z,26.60
2018-06-11T09:34:23.465Z,26.64
2018-06-11T09:36:52.290Z,26.76
2018-06-11T09:39:21.060Z,27.07
2018-06-11T09:41:50.318Z,27.90
2018-06-11T09:44:19.171Z,29.45
2018-06-11T09:46:48.644Z,30.96
2018-06-11T09:49:18.078Z,32.40
2018-06-11T09:51:46.806Z,33.28
2018-06-11T09:54:16.357Z,33.54
2018-06-11T09:56:45.251Z,32.62
2018-06-11T09:59:13.909Z,32.73
2018-06-11T10:01:42.961Z,33.72
2018-06-11T10:04:12.423Z,34.96
2018-06-11T10:06:41.184Z,36.30
2018-06-11T10:09:10.450Z,37.99
2018-06-11T10:11:39.280Z,38.92
2018-06-11T10:14:07.948Z,40.12
2018-06-11T10:16:36.738Z,40.57
2018-06-11T10:19:05.691Z,40.02
2018-06-11T10:21:34.949Z,38.84
2018-06-11T10:24:04.086Z,35.73
2018-06-11T10:26:33.011Z,33.89
2018-06-11T10:29:01.710Z,32.84
2018-06-11T10:31:32.919Z,31.80
2018-06-11T10:34:01.855Z,31.20
2018-06-11T10:36:31.434Z,30.96
2018-06-11T10:39:00.104Z,30.70
2018-06-11T10:41:29.723Z,30.24
2018-06-11T10:43:58.823Z,29.90
2018-06-11T10:46:28.415Z,29.51
2018-06-11T10:48:57.480Z,29.50
2018-06-11T10:51:26.558Z,29.21
2018-06-11T10:53:55.310Z,29.00
2018-06-11T10:56:24.080Z,29.12
2018-06-11T10:58:52.878Z,29.17
2018-06-11T11:01:21.511Z,29.10
2018-06-11T11:03:50.353Z,28.88
2018-06-11T11:06:19.977Z,28.71
2018-06-11T11:08:49.350Z,28.83
2018-06-11T11:11:18.008Z,29.15
2018-06-11T11:13:46.717Z,29.19
2018-06-11T11:16:15.798Z,29.57
2018-06-11T11:18:44.629Z,30.11
2018-06-11T11:21:13.400Z,30.79
2018-06-11T11:23:42.439Z,31.54
2018-06-11T11:26:11.395Z,32.00
2018-06-11T11:28:40.914Z,32.76
2018-06-11T11:31:09.620Z,32.74
2018-06-11T11:33:38.450Z,32.59
2018-06-11T11:36:07.750Z,32.59
2018-06-11T11:38:36.596Z,31.74
2018-06-11T11:41:05.332Z,31.47
2018-06-11T11:43:35.041Z,31.19
2018-06-11T11:46:04.647Z,31.38
2018-06-11T11:48:33.767Z,31.23
2018-06-11T11:51:02.559Z,31.96
2018-06-11T11:53:31.439Z,32.49
2018-06-11T11:56:00.159Z,32.87
2018-06-11T11:58:28.947Z,33.12
2018-06-11T12:00:57.920Z,33.21
2018-06-11T12:03:26.800Z,33.05
2018-06-11T12:05:56.400Z,32.75
2018-06-11T12:08:25.505Z,32.90
2018-06-11T12:10:54.485Z,33.06
2018-06-11T12:13:23.295Z,32.89
2018-06-11T12:15:52.187Z,32.81
2018-06-11T12:18:21.122Z,33.15
2018-06-11T12:20:49.787Z,33.00
2018-06-11T12:23:18.786Z,32.77
2018-06-11T12:25:47.409Z,32.61
2018-06-11T12:28:16.368Z,32.60
2018-06-11T12:30:45.096Z,32.69
2018-06-11T12:33:13.919Z,32.94
2018-06-11T12:35:42.752Z,32.79
2018-06-11T12:38:11.542Z,32.59
2018-06-11T12:40:41.704Z,32.49
2018-06-11T12:43:10.780Z,32.30
2018-06-11T12:45:39.620Z,32.28
2018-06-11T12:48:08.440Z,32.40
2018-06-11T12:50:37.105Z,32.33
2018-06-11T12:53:06.711Z,32.79
2018-06-11T12:55:35.669Z,32.70
2018-06-11T12:58:04.582Z,32.19
2018-06-11T13:00:33.435Z,32.26
2018-06-11T13:03:02.076Z,32.41
2018-06-11T13:05:30.837Z,32.18
2018-06-11T13:08:00.332Z,32.12
2018-06-11T13:10:29.325Z,32.11
2018-06-11T13:12:58.236Z,32.29
2018-06-11T13:15:27.896Z,32.38
2018-06-11T13:17:56.816Z,32.66
2018-06-11T13:20:25.571Z,32.81
2018-06-11T13:22:54.431Z,32.05
2018-06-11T13:25:23.592Z,32.14
2018-06-11T13:27:52.895Z,32.67
2018-06-11T13:30:22.060Z,33.04
2018-06-11T13:32:51.011Z,33.05
2018-06-11T13:35:19.716Z,32.96
2018-06-11T13:37:48.633Z,32.93
2018-06-11T13:40:17.681Z,32.90
2018-06-11T13:42:46.596Z,32.34
2018-06-11T13:45:15.525Z,32.32
2018-06-11T13:47:45.018Z,32.29
2018-06-11T13:50:13.937Z,32.40
2018-06-11T13:52:42.852Z,32.43
2018-06-11T13:55:12.446Z,32.43
2018-06-11T13:57:41.532Z,32.41
2018-06-11T14:00:11.102Z,32.58
2018-06-11T14:02:40.162Z,32.61
2018-06-11T14:05:09.328Z,32.51
2018-06-11T14:07:38.246Z,32.39
2018-06-11T14:10:07.098Z,32.19
2018-06-11T14:12:35.981Z,32.40
2018-06-11T14:15:05.206Z,32.44
2018-06-11T14:17:34.795Z,32.31
2018-06-11T14:20:03.788Z,32.37
2018-06-11T14:22:32.472Z,32.16
2018-06-11T14:25:02.001Z,31.80
2018-06-11T14:27:31.064Z,31.97
2018-06-11T14:29:59.767Z,31.85
2018-06-11T14:32:28.627Z,31.73
2018-06-11T14:34:57.547Z,31.74
2018-06-11T14:37:27.016Z,31.67
2018-06-11T14:39:55.865Z,31.41
2018-06-11T14:42:24.881Z,30.85
2018-06-11T14:44:53.928Z,30.18
2018-06-11T14:47:23.304Z,29.68
2018-06-11T14:49:52.342Z,29.17
2018-06-11T14:52:21.519Z,28.97
2018-06-11T14:54:50.746Z,28.84
2018-06-11T14:57:19.723Z,28.58
2018-06-11T14:59:49.201Z,28.52
2018-06-11T15:02:18.368Z,28.40
2018-06-11T15:04:47.784Z,28.32
2018-06-11T15:07:16.756Z,28.20
2018-06-11T15:09:46.280Z,28.09
2018-06-11T15:12:15.319Z,27.96
2018-06-11T15:14:44.717Z,27.73
2018-06-11T15:17:13.608Z,27.70
2018-06-11T15:19:42.622Z,27.85
2018-06-11T15:22:11.517Z,27.95
2018-06-11T15:24:41.375Z,27.97
2018-06-11T15:27:10.668Z,27.83
2018-06-11T15:29:39.611Z,27.63
2018-06-11T15:32:08.897Z,27.45
2018-06-11T15:34:37.810Z,27.33
2018-06-11T15:37:06.646Z,27.10
2018-06-11T15:39:35.612Z,26.86
2018-06-11T15:42:04.907Z,26.47
2018-06-11T15:44:34.324Z,26.14
2018-06-11T15:47:03.463Z,26.03
2018-06-11T15:49:32.617Z,25.75
2018-06-11T15:52:02.041Z,25.47
2018-06-11T15:54:31.118Z,25.11
2018-06-11T15:57:00.353Z,24.78
2018-06-11T15:59:29.203Z,24.53
2018-06-11T16:01:58.792Z,24.44
2018-06-11T16:04:28.026Z,24.34
2018-06-11T16:06:57.406Z,24.21
2018-06-11T16:09:26.452Z,24.19
2018-06-11T16:11:55.389Z,24.08
2018-06-11T16:14:24.290Z,24.14
2018-06-11T16:16:53.107Z,24.02
2018-06-11T16:19:23.520Z,23.97
2018-06-11T16:21:52.444Z,23.82
2018-06-11T16:24:21.561Z,23.76
2018-06-11T16:26:51.241Z,23.57
2018-06-11T16:29:20.158Z,23.36
2018-06-11T16:31:50.538Z,23.25
2018-06-11T16:34:19.308Z,23.10
2018-06-11T16:36:47.942Z,23.03
2018-06-11T16:39:17.008Z,22.98
2018-06-11T16:41:46.221Z,22.85
2018-06-11T16:44:16.601Z,22.77
2018-06-11T16:46:45.531Z,22.71
2018-06-11T16:49:14.272Z,22.50
2018-06-11T16:51:43.167Z,21.97
2018-06-11T16:54:12.130Z,21.77
2018-06-11T16:56:41.073Z,21.41
2018-06-11T16:59:09.821Z,21.34
2018-06-11T17:01:39.118Z,20.96
2018-06-11T17:04:09.110Z,20.90
2018-06-11T17:06:38.706Z,20.71
2018-06-11T17:09:09.770Z,20.58
2018-06-11T17:11:39.842Z,20.55
2018-06-11T17:14:09.229Z,20.60
2018-06-11T17:16:38.055Z,20.61
2018-06-11T17:19:06.869Z,20.52
2018-06-11T17:21:35.837Z,20.52
2018-06-11T17:24:05.038Z,20.46
2018-06-11T17:26:34.222Z,20.38
2018-06-11T17:29:03.153Z,20.34
2018-06-11T17:31:31.970Z,20.32
2018-06-11T17:34:01.111Z,20.22
2018-06-11T17:36:30.249Z,20.18
2018-06-11T17:38:59.436Z,20.24
2018-06-11T17:41:28.597Z,20.20
2018-06-11T17:43:57.932Z,20.16
2018-06-11T17:46:26.912Z,20.15
2018-06-11T17:48:55.883Z,20.12
2018-06-11T17:51:25.625Z,20.18
2018-06-11T17:53:54.803Z,20.14
2018-06-11T17:56:23.622Z,20.13
2018-06-11T17:58:53.284Z,20.03
2018-06-11T18:01:22.553Z,20.02
2018-06-11T18:03:51.580Z,20.08
2018-06-11T18:06:20.389Z,20.15
2018-06-11T18:08:49.352Z,20.17
2018-06-11T18:11:18.268Z,20.18
2018-06-11T18:13:47.356Z,20.21
2018-06-11T18:16:16.403Z,20.22
2018-06-11T18:18:45.358Z,20.18
2018-06-11T18:21:15.087Z,20.14
2018-06-11T18:23:44.436Z,20.14
2018-06-11T18:26:13.273Z,20.06
2018-06-11T18:28:42.282Z,20.03
2018-06-11T18:31:11.167Z,19.97
2018-06-11T18:33:40.316Z,19.89
2018-06-11T18:36:09.457Z,19.86
2018-06-11T18:38:40.091Z,19.77
2018-06-11T18:41:09.036Z,19.72
2018-06-11T18:43:37.909Z,19.69
2018-06-11T18:46:07.122Z,19.61
2018-06-11T18:48:36.191Z,19.56
2018-06-11T18:51:05.262Z,19.55
2018-06-11T18:53:34.171Z,19.63
2018-06-11T18:56:04.227Z,19.62
2018-06-11T18:58:33.231Z,19.59
2018-06-11T19:01:02.109Z,19.49
2018-06-11T19:03:31.087Z,19.44
2018-06-11T19:06:00.173Z,19.42
2018-06-11T19:08:29.313Z,19.37
2018-06-11T19:10:58.117Z,19.41
2018-06-11T19:13:27.056Z,19.43
2018-06-11T19:15:56.068Z,19.36
2018-06-11T19:18:25.087Z,19.29
2018-06-11T19:20:54.529Z,19.29
2018-06-11T19:23:23.728Z,19.26
2018-06-11T19:25:52.817Z,19.23
2018-06-11T19:28:21.870Z,19.17
2018-06-11T19:30:51.387Z,19.12
2018-06-11T19:33:20.592Z,19.10
2018-06-11T19:35:50.959Z,19.09
2018-06-11T19:38:19.906Z,19.09
2018-06-11T19:40:49.286Z,19.08
2018-06-11T19:43:18.630Z,19.06
2018-06-11T19:45:49.704Z,19.05
2018-06-11T19:48:22.716Z,19.04
2018-06-11T19:50:51.733Z,19.04
2018-06-11T19:53:20.548Z,18.97
2018-06-11T19:55:49.755Z,18.97
2018-06-11T19:58:19.041Z,19.03
2018-06-11T20:00:48.154Z,19.07
2018-06-11T20:03:17.842Z,19.11
2018-06-11T20:05:46.739Z,19.17
2018-06-11T20:08:15.688Z,19.17
2018-06-11T20:10:44.768Z,19.23
2018-06-11T20:13:14.918Z,19.24
2018-06-11T20:15:43.836Z,19.18
2018-06-11T20:18:13.728Z,19.11
2018-06-11T20:20:43.620Z,19.11
2018-06-11T20:23:12.939Z,19.06
2018-06-11T20:25:42.090Z,19.01
2018-06-11T20:28:11.048Z,18.93
2018-06-11T20:30:40.202Z,18.82
2018-06-11T20:33:10.688Z,18.68
2018-06-11T20:35:40.373Z,18.59
2018-06-11T20:38:09.094Z,18.45
2018-06-11T20:40:38.508Z,18.38
2018-06-11T20:43:07.415Z,18.34
2018-06-11T20:45:36.255Z,18.23
2018-06-11T20:48:05.567Z,18.13
2018-06-11T20:50:34.639Z,18.05
2018-06-11T20:53:03.646Z,17.98
2018-06-11T20:55:32.769Z,17.90
2018-06-11T20:58:02.256Z,17.83
2018-06-11T21:00:31.195Z,17.78
2018-06-11T21:03:00.228Z,17.76
2018-06-11T21:05:29.675Z,17.70
2018-06-11T21:07:59.842Z,17.64
2018-06-11T21:10:29.175Z,17.61
2018-06-11T21:12:58.585Z,17.60
2018-06-11T21:15:27.473Z,17.57
2018-06-11T21:17:56.107Z,17.57
2018-06-11T21:20:25.098Z,17.61
2018-06-11T21:22:54.284Z,17.59
2018-06-11T21:25:23.439Z,17.57
2018-06-11T21:27:52.238Z,17.52
2018-06-11T21:30:20.897Z,17.46
2018-06-11T21:32:49.724Z,17.33
2018-06-11T21:35:18.582Z,17.27
2018-06-11T21:37:47.560Z,17.27
2018-06-11T21:40:16.910Z,17.22
2018-06-11T21:42:46.033Z,17.18
2018-06-11T21:45:15.573Z,17.16
2018-06-11T21:47:44.289Z,17.11
2018-06-11T21:50:13.772Z,17.04
2018-06-11T21:52:42.572Z,16.97
2018-06-11T21:55:11.249Z,16.95
2018-06-11T21:57:40.072Z,17.00
2018-06-11T22:00:09.284Z,17.02
2018-06-11T22:02:39.939Z,16.98
2018-06-11T22:05:08.735Z,16.94
2018-06-11T22:07:37.484Z,17.03
2018-06-11T22:10:06.590Z,17.04
2018-06-11T22:12:35.772Z,17.07
2018-06-11T22:15:05.023Z,17.05
2018-06-11T22:17:34.707Z,17.08
2018-06-11T22:20:03.378Z,17.09
2018-06-11T22:22:32.283Z,17.01
2018-06-11T22:25:01.847Z,16.89
2018-06-11T22:27:31.048Z,16.88
2018-06-11T22:30:00.444Z,16.88
2018-06-11T22:32:29.172Z,16.90
2018-06-11T22:34:58.778Z,16.87
2018-06-11T22:37:28.173Z,16.86
2018-06-11T22:39:57.092Z,16.77
2018-06-11T22:42:25.997Z,16.72
2018-06-11T22:44:55.490Z,16.64
2018-06-11T22:47:24.458Z,16.56
2018-06-11T22:49:53.942Z,16.53
2018-06-11T22:52:23.417Z,16.57
2018-06-11T22:54:51.987Z,16.62
2018-06-11T22:57:20.693Z,16.66
2018-06-11T22:59:50.225Z,16.77
2018-06-11T23:02:19.129Z,16.75
2018-06-11T23:04:48.458Z,16.76
2018-06-11T23:07:17.254Z,16.70
2018-06-11T23:09:46.772Z,16.71
2018-06-11T23:12:16.278Z,16.70
2018-06-11T23:14:44.949Z,16.70
2018-06-11T23:17:14.473Z,16.65
2018-06-11T23:19:43.146Z,16.59
2018-06-11T23:22:11.868Z,16.52
2018-06-11T23:24:40.817Z,16.44
2018-06-11T23:27:10.433Z,16.34
2018-06-11T23:29:39.212Z,16.31
2018-06-11T23:32:08.027Z,16.23
2018-06-11T23:34:36.731Z,16.23
2018-06-11T23:37:06.133Z,16.22
2018-06-11T23:39:34.772Z,16.18
2018-06-11T23:42:03.800Z,16.11
2018-06-11T23:44:32.647Z,16.06
2018-06-11T23:47:01.440Z,16.05
2018-06-11T23:49:30.420Z,16.07
2018-06-11T23:51:59.614Z,16.12
2018-06-11T23:54:28.513Z,16.12
2018-06-11T23:56:57.229Z,16.17
2018-06-11T23:59:26.312Z,16.17
